WAT3630 SADF-SULS
Flight info
| Callsign | WAT3630 |
|---|---|
| Flight time | N/A |
| Altitude | 5000 |
| Route | DORVO A305 CRR |
| Aircraft | BE58/L-SDFGRY/C |
Departure
| Time | 2026-04-25 18:51 |
|---|---|
| Airport | San Fernando Airport (SADF) |
Arrival
| Time | N/A |
|---|---|
| Airport | Capitan Corbeta CA Curbelo International Airport (SULS) |
| Time | Latitude | Longitude | Altitude | Speed | Heading |
|---|---|---|---|---|---|
| 2026-04-25 18:40 | -34.45436 | -58.58088 | 10 ft | 0 kts | 203° |
| 2026-04-25 18:45 | -34.45437 | -58.58112 | 10 ft | 5 kts | 304° |
| 2026-04-25 18:45 | -34.45412 | -58.58147 | 10 ft | 2 kts | 289° |
| 2026-04-25 18:45 | -34.45412 | -58.58155 | 11 ft | 5 kts | 270° |
| 2026-04-25 18:45 | -34.45454 | -58.58258 | 10 ft | 16 kts | 240° |
| 2026-04-25 18:46 | -34.45505 | -58.58374 | 10 ft | 14 kts | 244° |
| 2026-04-25 18:46 | -34.45548 | -58.58480 | 11 ft | 13 kts | 244° |
| 2026-04-25 18:46 | -34.45589 | -58.58580 | 10 ft | 12 kts | 243° |
| 2026-04-25 18:46 | -34.45628 | -58.58672 | 10 ft | 12 kts | 244° |
| 2026-04-25 18:47 | -34.45667 | -58.58760 | 11 ft | 11 kts | 241° |
| 2026-04-25 18:47 | -34.45705 | -58.58843 | 10 ft | 10 kts | 240° |
| 2026-04-25 18:47 | -34.45739 | -58.58918 | 10 ft | 9 kts | 244° |
| 2026-04-25 18:47 | -34.45778 | -58.59013 | 10 ft | 17 kts | 244° |
| 2026-04-25 18:48 | -34.45838 | -58.59152 | 11 ft | 17 kts | 242° |
| 2026-04-25 18:48 | -34.45889 | -58.59273 | 11 ft | 15 kts | 243° |
| 2026-04-25 18:48 | -34.45934 | -58.59378 | 11 ft | 13 kts | 243° |
| 2026-04-25 18:48 | -34.45974 | -58.59469 | 11 ft | 11 kts | 242° |
| 2026-04-25 18:49 | -34.46009 | -58.59550 | 10 ft | 10 kts | 245° |
| 2026-04-25 18:49 | -34.46030 | -58.59627 | 11 ft | 8 kts | 280° |
| 2026-04-25 18:49 | -34.45992 | -58.59671 | 11 ft | 7 kts | 354° |
| 2026-04-25 18:49 | -34.45938 | -58.59653 | 11 ft | 8 kts | 35° |
| 2026-04-25 18:50 | -34.45891 | -58.59604 | 11 ft | 9 kts | 41° |
| 2026-04-25 18:50 | -34.45750 | -58.59442 | 11 ft | 55 kts | 44° |
| 2026-04-25 18:50 | -34.45373 | -58.58995 | 11 ft | 92 kts | 45° |
| 2026-04-25 18:50 | -34.44836 | -58.58394 | 59 ft | 111 kts | 39° |
| 2026-04-25 18:51 | -34.44227 | -58.57812 | 301 ft | 112 kts | 39° |
| 2026-04-25 18:51 | -34.43816 | -58.57364 | 397 ft | 124 kts | 44° |
| 2026-04-25 18:51 | -34.42957 | -58.56298 | 626 ft | 137 kts | 49° |
| 2026-04-25 18:51 | -34.42370 | -58.55390 | 867 ft | 138 kts | 56° |
| 2026-04-25 18:52 | -34.41808 | -58.54392 | 1008 ft | 146 kts | 57° |
| 2026-04-25 18:52 | -34.41222 | -58.53384 | 1170 ft | 150 kts | 54° |
| 2026-04-25 18:52 | -34.40624 | -58.52291 | 1238 ft | 157 kts | 59° |
| 2026-04-25 18:52 | -34.40075 | -58.51160 | 1399 ft | 154 kts | 60° |
| 2026-04-25 18:53 | -34.39554 | -58.50020 | 1445 ft | 158 kts | 65° |
| 2026-04-25 18:53 | -34.39138 | -58.48730 | 1351 ft | 169 kts | 73° |
| 2026-04-25 18:53 | -34.38915 | -58.47336 | 1332 ft | 169 kts | 95° |
| 2026-04-25 18:53 | -34.39227 | -58.45933 | 1148 ft | 178 kts | 112° |
| 2026-04-25 18:54 | -34.40167 | -58.43114 | 923 ft | 179 kts | 114° |
| 2026-04-25 18:54 | -34.40622 | -58.41799 | 1119 ft | 164 kts | 114° |
| 2026-04-25 18:54 | -34.41053 | -58.40560 | 1306 ft | 156 kts | 114° |
| 2026-04-25 18:55 | -34.41470 | -58.39364 | 1467 ft | 153 kts | 115° |
| 2026-04-25 18:55 | -34.41881 | -58.38184 | 1615 ft | 151 kts | 115° |
| 2026-04-25 18:55 | -34.42289 | -58.37015 | 1759 ft | 150 kts | 115° |
| 2026-04-25 18:55 | -34.42694 | -58.35851 | 1900 ft | 150 kts | 115° |
| 2026-04-25 18:56 | -34.43102 | -58.34682 | 2040 ft | 150 kts | 114° |
| 2026-04-25 18:56 | -34.43503 | -58.33529 | 2174 ft | 149 kts | 114° |
| 2026-04-25 18:56 | -34.43911 | -58.32356 | 2309 ft | 149 kts | 114° |
| 2026-04-25 18:56 | -34.44311 | -58.31206 | 2438 ft | 150 kts | 114° |
| 2026-04-25 18:57 | -34.44718 | -58.30038 | 2564 ft | 150 kts | 114° |
| 2026-04-25 18:57 | -34.45124 | -58.28869 | 2693 ft | 150 kts | 114° |
| 2026-04-25 18:57 | -34.45527 | -58.27710 | 2820 ft | 150 kts | 114° |
| 2026-04-25 18:57 | -34.45800 | -58.26924 | 2843 ft | 157 kts | 114° |
| 2026-04-25 18:58 | -34.46390 | -58.25221 | 2828 ft | 171 kts | 114° |
| 2026-04-25 18:58 | -34.47310 | -58.22565 | 3043 ft | 170 kts | 114° |
| 2026-04-25 18:58 | -34.47768 | -58.21244 | 3167 ft | 169 kts | 114° |
| 2026-04-25 18:59 | -34.48666 | -58.18653 | 3486 ft | 164 kts | 114° |
| 2026-04-25 18:59 | -34.49544 | -58.16120 | 3766 ft | 163 kts | 114° |
| 2026-04-25 19:00 | -34.50422 | -58.13583 | 4056 ft | 162 kts | 114° |
| 2026-04-25 19:00 | -34.50856 | -58.12325 | 4178 ft | 162 kts | 115° |
| 2026-04-25 19:01 | -34.51722 | -58.09822 | 4433 ft | 161 kts | 115° |
| 2026-04-25 19:01 | -34.52156 | -58.08565 | 4563 ft | 161 kts | 115° |
| 2026-04-25 19:01 | -34.52593 | -58.07302 | 4688 ft | 161 kts | 115° |
| 2026-04-25 19:01 | -34.53022 | -58.06059 | 4813 ft | 161 kts | 115° |
| 2026-04-25 19:02 | -34.53902 | -58.03510 | 4923 ft | 169 kts | 115° |
| 2026-04-25 19:02 | -34.54365 | -58.02167 | 4921 ft | 174 kts | 115° |
| 2026-04-25 19:02 | -34.54834 | -58.00807 | 4946 ft | 175 kts | 114° |
| 2026-04-25 19:03 | -34.55626 | -57.98513 | 4944 ft | 179 kts | 114° |
| 2026-04-25 19:03 | -34.56272 | -57.96638 | 4946 ft | 181 kts | 114° |
| 2026-04-25 19:03 | -34.56759 | -57.95222 | 4946 ft | 182 kts | 115° |
| 2026-04-25 19:04 | -34.57736 | -57.92381 | 4942 ft | 183 kts | 115° |
| 2026-04-25 19:04 | -34.58226 | -57.90955 | 4941 ft | 183 kts | 115° |
| 2026-04-25 19:05 | -34.59201 | -57.88115 | 4942 ft | 183 kts | 115° |
| 2026-04-25 19:05 | -34.60181 | -57.85258 | 4937 ft | 183 kts | 115° |
| 2026-04-25 19:05 | -34.60667 | -57.83843 | 4936 ft | 182 kts | 115° |
| 2026-04-25 19:06 | -34.61153 | -57.82423 | 4948 ft | 182 kts | 115° |
| 2026-04-25 19:06 | -34.62127 | -57.79579 | 4944 ft | 183 kts | 115° |
| 2026-04-25 19:06 | -34.62619 | -57.78140 | 4941 ft | 183 kts | 115° |
| 2026-04-25 19:07 | -34.63589 | -57.75303 | 4945 ft | 182 kts | 115° |
| 2026-04-25 19:07 | -34.64077 | -57.73874 | 4945 ft | 183 kts | 115° |
| 2026-04-25 19:08 | -34.65050 | -57.71026 | 4947 ft | 184 kts | 115° |
| 2026-04-25 19:08 | -34.65543 | -57.69582 | 4946 ft | 184 kts | 115° |
| 2026-04-25 19:09 | -34.67010 | -57.65278 | 4940 ft | 185 kts | 115° |
| 2026-04-25 19:09 | -34.67337 | -57.64317 | 4942 ft | 184 kts | 115° |
| 2026-04-25 19:09 | -34.68480 | -57.60961 | 4944 ft | 184 kts | 115° |
| 2026-04-25 19:10 | -34.68969 | -57.59522 | 4942 ft | 184 kts | 114° |
| 2026-04-25 19:10 | -34.69461 | -57.58074 | 4939 ft | 184 kts | 114° |
| 2026-04-25 19:10 | -34.69943 | -57.56656 | 4944 ft | 184 kts | 115° |
| 2026-04-25 19:10 | -34.70432 | -57.55217 | 4942 ft | 184 kts | 114° |
| 2026-04-25 19:11 | -34.70921 | -57.53777 | 4942 ft | 184 kts | 115° |
| 2026-04-25 19:11 | -34.71404 | -57.52354 | 4940 ft | 183 kts | 115° |
| 2026-04-25 19:11 | -34.71698 | -57.50837 | 4943 ft | 185 kts | 99° |
| 2026-04-25 19:11 | -34.71831 | -57.49283 | 4940 ft | 185 kts | 97° |
| 2026-04-25 19:12 | -34.71959 | -57.47727 | 4942 ft | 185 kts | 97° |
| 2026-04-25 19:12 | -34.72087 | -57.46175 | 4944 ft | 186 kts | 98° |
| 2026-04-25 19:12 | -34.72218 | -57.44599 | 4938 ft | 186 kts | 98° |
| 2026-04-25 19:12 | -34.72349 | -57.43038 | 4941 ft | 186 kts | 98° |
| 2026-04-25 19:13 | -34.72474 | -57.41542 | 4935 ft | 186 kts | 98° |
| 2026-04-25 19:13 | -34.72604 | -57.39988 | 4937 ft | 186 kts | 98° |
| 2026-04-25 19:13 | -34.72735 | -57.38422 | 4935 ft | 186 kts | 98° |
| 2026-04-25 19:13 | -34.72866 | -57.36856 | 4936 ft | 185 kts | 97° |
| 2026-04-25 19:14 | -34.72994 | -57.35315 | 4941 ft | 185 kts | 98° |
| 2026-04-25 19:14 | -34.73081 | -57.34271 | 4939 ft | 185 kts | 97° |
| 2026-04-25 19:14 | -34.73255 | -57.32185 | 4935 ft | 185 kts | 97° |
| 2026-04-25 19:14 | -34.73383 | -57.30644 | 4937 ft | 185 kts | 97° |
| 2026-04-25 19:15 | -34.73512 | -57.29088 | 4939 ft | 185 kts | 97° |
| 2026-04-25 19:15 | -34.73642 | -57.27512 | 4937 ft | 186 kts | 97° |
| 2026-04-25 19:15 | -34.73771 | -57.25955 | 4937 ft | 186 kts | 97° |
| 2026-04-25 19:15 | -34.73899 | -57.24403 | 4936 ft | 186 kts | 97° |
| 2026-04-25 19:16 | -34.74029 | -57.22824 | 4935 ft | 186 kts | 97° |
| 2026-04-25 19:16 | -34.74156 | -57.21282 | 4929 ft | 185 kts | 97° |
| 2026-04-25 19:16 | -34.74285 | -57.19715 | 4931 ft | 185 kts | 97° |
| 2026-04-25 19:16 | -34.74413 | -57.18151 | 4931 ft | 185 kts | 97° |
| 2026-04-25 19:17 | -34.74541 | -57.16596 | 4934 ft | 185 kts | 97° |
| 2026-04-25 19:17 | -34.74667 | -57.15055 | 4936 ft | 185 kts | 97° |
| 2026-04-25 19:17 | -34.74794 | -57.13496 | 4940 ft | 185 kts | 97° |
| 2026-04-25 19:17 | -34.74921 | -57.11940 | 4935 ft | 185 kts | 97° |
| 2026-04-25 19:18 | -34.75047 | -57.10389 | 4942 ft | 184 kts | 97° |
| 2026-04-25 19:18 | -34.75172 | -57.08843 | 4947 ft | 184 kts | 97° |
| 2026-04-25 19:18 | -34.75298 | -57.07296 | 4953 ft | 184 kts | 97° |
| 2026-04-25 19:18 | -34.75425 | -57.05726 | 4953 ft | 185 kts | 97° |
| 2026-04-25 19:19 | -34.75551 | -57.04171 | 4951 ft | 185 kts | 97° |
| 2026-04-25 19:19 | -34.75676 | -57.02623 | 4952 ft | 185 kts | 97° |
| 2026-04-25 19:19 | -34.75802 | -57.01064 | 4950 ft | 185 kts | 97° |
| 2026-04-25 19:19 | -34.75886 | -57.00019 | 4951 ft | 185 kts | 97° |
| 2026-04-25 19:20 | -34.76052 | -56.97949 | 4952 ft | 186 kts | 97° |
| 2026-04-25 19:20 | -34.76178 | -56.96373 | 4947 ft | 186 kts | 97° |
| 2026-04-25 19:20 | -34.76304 | -56.94815 | 4949 ft | 185 kts | 97° |
| 2026-04-25 19:20 | -34.76427 | -56.93260 | 4944 ft | 185 kts | 97° |
| 2026-04-25 19:21 | -34.76552 | -56.91700 | 4943 ft | 185 kts | 97° |
| 2026-04-25 19:21 | -34.76801 | -56.88580 | 4948 ft | 186 kts | 97° |
| 2026-04-25 19:21 | -34.76925 | -56.87017 | 4941 ft | 186 kts | 97° |
| 2026-04-25 19:22 | -34.77049 | -56.85451 | 4934 ft | 186 kts | 97° |
| 2026-04-25 19:22 | -34.77174 | -56.83870 | 4934 ft | 186 kts | 97° |
| 2026-04-25 19:22 | -34.77420 | -56.80751 | 4936 ft | 186 kts | 97° |
| 2026-04-25 19:23 | -34.77545 | -56.79176 | 4933 ft | 186 kts | 97° |
| 2026-04-25 19:23 | -34.77790 | -56.76047 | 4931 ft | 186 kts | 97° |
| 2026-04-25 19:23 | -34.77914 | -56.74471 | 4931 ft | 186 kts | 97° |
| 2026-04-25 19:24 | -34.78036 | -56.72910 | 4932 ft | 186 kts | 97° |
| 2026-04-25 19:24 | -34.78159 | -56.71344 | 4932 ft | 186 kts | 97° |
| 2026-04-25 19:24 | -34.78399 | -56.68223 | 4934 ft | 186 kts | 97° |
| 2026-04-25 19:25 | -34.78640 | -56.65087 | 4935 ft | 186 kts | 97° |
| 2026-04-25 19:25 | -34.78759 | -56.63525 | 4938 ft | 186 kts | 97° |
| 2026-04-25 19:25 | -34.78879 | -56.61964 | 4939 ft | 186 kts | 97° |
| 2026-04-25 19:26 | -34.78999 | -56.60398 | 4936 ft | 186 kts | 97° |
| 2026-04-25 19:26 | -34.79119 | -56.58819 | 4939 ft | 186 kts | 97° |
| 2026-04-25 19:26 | -34.79237 | -56.57261 | 4942 ft | 186 kts | 97° |
| 2026-04-25 19:26 | -34.79357 | -56.55689 | 4940 ft | 187 kts | 97° |
| 2026-04-25 19:27 | -34.79476 | -56.54124 | 4938 ft | 187 kts | 97° |
| 2026-04-25 19:27 | -34.79556 | -56.53067 | 4936 ft | 186 kts | 97° |
| 2026-04-25 19:27 | -34.79713 | -56.50983 | 4941 ft | 186 kts | 97° |
| 2026-04-25 19:27 | -34.79832 | -56.49414 | 4939 ft | 187 kts | 97° |
| 2026-04-25 19:28 | -34.79951 | -56.47825 | 4934 ft | 186 kts | 97° |
| 2026-04-25 19:28 | -34.80069 | -56.46260 | 4940 ft | 186 kts | 97° |
| 2026-04-25 19:28 | -34.80185 | -56.44708 | 4940 ft | 186 kts | 97° |
| 2026-04-25 19:28 | -34.80303 | -56.43137 | 4942 ft | 186 kts | 97° |
| 2026-04-25 19:29 | -34.80421 | -56.41563 | 4936 ft | 186 kts | 97° |
| 2026-04-25 19:29 | -34.80537 | -56.40011 | 4949 ft | 186 kts | 97° |
| 2026-04-25 19:29 | -34.80653 | -56.38443 | 4942 ft | 186 kts | 97° |
| 2026-04-25 19:29 | -34.80771 | -56.36868 | 4946 ft | 186 kts | 97° |
| 2026-04-25 19:30 | -34.80886 | -56.35318 | 4946 ft | 186 kts | 97° |
| 2026-04-25 19:30 | -34.81004 | -56.33729 | 4946 ft | 187 kts | 96° |
| 2026-04-25 19:30 | -34.81120 | -56.32159 | 4946 ft | 187 kts | 96° |
| 2026-04-25 19:30 | -34.81237 | -56.30581 | 4950 ft | 187 kts | 96° |
| 2026-04-25 19:31 | -34.81352 | -56.29017 | 4946 ft | 187 kts | 96° |
| 2026-04-25 19:31 | -34.81467 | -56.27444 | 4946 ft | 187 kts | 96° |
| 2026-04-25 19:31 | -34.81584 | -56.25860 | 4947 ft | 187 kts | 96° |
| 2026-04-25 19:31 | -34.81699 | -56.24291 | 4946 ft | 187 kts | 96° |
| 2026-04-25 19:32 | -34.81815 | -56.22708 | 4945 ft | 186 kts | 96° |
| 2026-04-25 19:32 | -34.81928 | -56.21158 | 4945 ft | 186 kts | 96° |
| 2026-04-25 19:32 | -34.82044 | -56.19583 | 4945 ft | 186 kts | 96° |
| 2026-04-25 19:32 | -34.82120 | -56.18533 | 4945 ft | 186 kts | 96° |
| 2026-04-25 19:33 | -34.82270 | -56.16462 | 4945 ft | 185 kts | 96° |
| 2026-04-25 19:33 | -34.82384 | -56.14896 | 4945 ft | 185 kts | 96° |
| 2026-04-25 19:33 | -34.82497 | -56.13332 | 4945 ft | 186 kts | 96° |
| 2026-04-25 19:33 | -34.82611 | -56.11765 | 4945 ft | 186 kts | 96° |
| 2026-04-25 19:34 | -34.82725 | -56.10187 | 4945 ft | 186 kts | 96° |
| 2026-04-25 19:34 | -34.82837 | -56.08627 | 4945 ft | 186 kts | 96° |
| 2026-04-25 19:34 | -34.82949 | -56.07068 | 4946 ft | 186 kts | 96° |
| 2026-04-25 19:34 | -34.83062 | -56.05495 | 4946 ft | 186 kts | 96° |
| 2026-04-25 19:35 | -34.83176 | -56.03909 | 4945 ft | 187 kts | 96° |
| 2026-04-25 19:35 | -34.83280 | -56.02341 | 4945 ft | 187 kts | 94° |
| 2026-04-25 19:35 | -34.83329 | -56.00768 | 4945 ft | 187 kts | 90° |
| 2026-04-25 19:35 | -34.83148 | -55.99188 | 4944 ft | 187 kts | 79° |
| 2026-04-25 19:36 | -34.82894 | -55.97649 | 4944 ft | 187 kts | 79° |
| 2026-04-25 19:36 | -34.82627 | -55.96100 | 4943 ft | 187 kts | 78° |
| 2026-04-25 19:36 | -34.82367 | -55.94618 | 4937 ft | 171 kts | 78° |
| 2026-04-25 19:36 | -34.82123 | -55.93258 | 4939 ft | 157 kts | 78° |
| 2026-04-25 19:37 | -34.81895 | -55.91993 | 4871 ft | 152 kts | 78° |
| 2026-04-25 19:37 | -34.81669 | -55.90738 | 4737 ft | 152 kts | 78° |
| 2026-04-25 19:37 | -34.81440 | -55.89476 | 4604 ft | 153 kts | 78° |
| 2026-04-25 19:37 | -34.81213 | -55.88222 | 4475 ft | 152 kts | 78° |
| 2026-04-25 19:38 | -34.80984 | -55.86962 | 4346 ft | 152 kts | 78° |
| 2026-04-25 19:38 | -34.80756 | -55.85707 | 4219 ft | 152 kts | 78° |
| 2026-04-25 19:38 | -34.80529 | -55.84460 | 4097 ft | 151 kts | 78° |
| 2026-04-25 19:38 | -34.80300 | -55.83202 | 3973 ft | 151 kts | 78° |
| 2026-04-25 19:39 | -34.80076 | -55.81971 | 3849 ft | 150 kts | 78° |
| 2026-04-25 19:39 | -34.79850 | -55.80732 | 3723 ft | 150 kts | 78° |
| 2026-04-25 19:39 | -34.79623 | -55.79483 | 3598 ft | 149 kts | 78° |
| 2026-04-25 19:39 | -34.79398 | -55.78254 | 3479 ft | 149 kts | 78° |
| 2026-04-25 19:40 | -34.79173 | -55.77023 | 3358 ft | 149 kts | 78° |
| 2026-04-25 19:40 | -34.78950 | -55.75804 | 3237 ft | 148 kts | 78° |
| 2026-04-25 19:40 | -34.78727 | -55.74586 | 3114 ft | 148 kts | 78° |
| 2026-04-25 19:40 | -34.78503 | -55.73360 | 2990 ft | 148 kts | 78° |
| 2026-04-25 19:41 | -34.78281 | -55.72150 | 2937 ft | 144 kts | 77° |
| 2026-04-25 19:41 | -34.78058 | -55.70934 | 2950 ft | 154 kts | 78° |
| 2026-04-25 19:41 | -34.77817 | -55.69620 | 2948 ft | 163 kts | 78° |
| 2026-04-25 19:41 | -34.77653 | -55.68718 | 2946 ft | 168 kts | 78° |
| 2026-04-25 19:42 | -34.77308 | -55.66832 | 2942 ft | 174 kts | 78° |
| 2026-04-25 19:42 | -34.77040 | -55.65372 | 2939 ft | 176 kts | 78° |
| 2026-04-25 19:42 | -34.76774 | -55.63924 | 2938 ft | 177 kts | 78° |
| 2026-04-25 19:42 | -34.76504 | -55.62456 | 2937 ft | 178 kts | 78° |
| 2026-04-25 19:43 | -34.76231 | -55.60976 | 2936 ft | 179 kts | 78° |
| 2026-04-25 19:43 | -34.75961 | -55.59508 | 2936 ft | 179 kts | 78° |
| 2026-04-25 19:43 | -34.75688 | -55.58026 | 2937 ft | 179 kts | 78° |
| 2026-04-25 19:43 | -34.75415 | -55.56548 | 2935 ft | 180 kts | 78° |
| 2026-04-25 19:44 | -34.75139 | -55.55053 | 2838 ft | 185 kts | 78° |
| 2026-04-25 19:44 | -34.74852 | -55.53499 | 2706 ft | 189 kts | 78° |
| 2026-04-25 19:44 | -34.74562 | -55.51932 | 2581 ft | 192 kts | 78° |
| 2026-04-25 19:44 | -34.74271 | -55.50355 | 2462 ft | 192 kts | 78° |
| 2026-04-25 19:45 | -34.73975 | -55.48763 | 2425 ft | 188 kts | 78° |
| 2026-04-25 19:45 | -34.73691 | -55.47230 | 2428 ft | 185 kts | 78° |
| 2026-04-25 19:45 | -34.73412 | -55.45721 | 2430 ft | 182 kts | 78° |
| 2026-04-25 19:45 | -34.73134 | -55.44223 | 2445 ft | 180 kts | 78° |
| 2026-04-25 19:46 | -34.72857 | -55.42735 | 2457 ft | 179 kts | 78° |
| 2026-04-25 19:46 | -34.72582 | -55.41260 | 2459 ft | 179 kts | 78° |
| 2026-04-25 19:46 | -34.72307 | -55.39789 | 2459 ft | 179 kts | 78° |
| 2026-04-25 19:46 | -34.72035 | -55.38328 | 2462 ft | 179 kts | 78° |
| 2026-04-25 19:47 | -34.71758 | -55.36842 | 2460 ft | 179 kts | 78° |
| 2026-04-25 19:47 | -34.71484 | -55.35372 | 2462 ft | 179 kts | 78° |
| 2026-04-25 19:47 | -34.71209 | -55.33896 | 2463 ft | 179 kts | 77° |
| 2026-04-25 19:47 | -34.70931 | -55.32412 | 2465 ft | 179 kts | 77° |
| 2026-04-25 19:48 | -34.70657 | -55.30942 | 2466 ft | 179 kts | 77° |
| 2026-04-25 19:48 | -34.70378 | -55.29451 | 2467 ft | 179 kts | 77° |
| 2026-04-25 19:48 | -34.70109 | -55.28016 | 2464 ft | 171 kts | 77° |
| 2026-04-25 19:48 | -34.69849 | -55.26638 | 2467 ft | 161 kts | 77° |
| 2026-04-25 19:49 | -34.69609 | -55.25353 | 2470 ft | 153 kts | 77° |
| 2026-04-25 19:49 | -34.69453 | -55.24525 | 2472 ft | 149 kts | 77° |
| 2026-04-25 19:49 | -34.69153 | -55.22923 | 2474 ft | 143 kts | 77° |
| 2026-04-25 19:49 | -34.68933 | -55.21755 | 2476 ft | 140 kts | 77° |
| 2026-04-25 19:50 | -34.68637 | -55.19458 | 2474 ft | 135 kts | 88° |
| 2026-04-25 19:50 | -34.68613 | -55.18698 | 2474 ft | 134 kts | 88° |
| 2026-04-25 19:50 | -34.68576 | -55.17580 | 2474 ft | 132 kts | 88° |